This is the latest recevied weather packets stored in our database for station/object EA5GTE-12. If no packets are shown the sender has not sent any weather packets the latest 1 day(s).
| Time | Temp. | Humidity | Pressure | Rain* | Wind** | Luminosity | Snow |
|---|---|---|---|---|---|---|---|
| 1778107052 | 12.22° C | 100% | 934.6 hPa | - | - | - | - |
| 1778106155 | 12.22° C | 100% | 934.4 hPa | - | - | - | - |
| 1778101654 | 13.33° C | 100% | 934.2 hPa | - | - | - | - |
| 1778093552 | 16.11° C | 79% | 932.5 hPa | - | - | - | - |
| 1778090852 | 20° C | 30% | 931.9 hPa | - | - | - | - |
| 1778085450 | 25° C | 23% | 931.7 hPa | - | - | - | - |
| 1778084550 | 25° C | 23% | 931.7 hPa | - | - | - | - |
| 1778083650 | 26.11° C | 21% | 931.8 hPa | - | - | - | - |
| 1778082750 | 22.22° C | 26% | 931.9 hPa | - | - | - | - |
| 1778081850 | 30° C | 17% | 931.9 hPa | - | - | - | - |
| 1778071953 | 23.89° C | 23% | 933.5 hPa | - | - | - | - |
| 1778071053 | 25° C | 22% | 933.6 hPa | - | - | - | - |
| 1778063850 | 24.44° C | 24% | 934.7 hPa | - | - | - | - |
| 1778062050 | 22.22° C | 33% | 934.9 hPa | - | - | - | - |
| 1778061150 | 23.89° C | 32% | 935 hPa | - | - | - | - |
| 1778060250 | 22.22° C | 36% | 935 hPa | - | - | - | - |
| 1778059350 | 23.33° C | 38% | 934.9 hPa | - | - | - | - |
| 1778058450 | 24.44° C | 34% | 934.9 hPa | - | - | - | - |
| 1778057550 | 23.89° C | 36% | 934.9 hPa | - | - | - | - |
| 1778056650 | 22.78° C | 40% | 934.9 hPa | - | - | - | - |
| 1778055750 | 19.44° C | 48% | 935.1 hPa | - | - | - | - |
| 1778054850 | 20° C | 45% | 935 hPa | - | - | - | - |
| 1778053950 | 18.89° C | 50% | 935.1 hPa | - | - | - | - |
| 1778053049 | 19.44° C | 49% | 935.2 hPa | - | - | - | - |
| 1778048555 | 15° C | 62% | 935.3 hPa | - | - | - | - |
* Rain since midnight (hover to see other rain measurements)
** Current wind speed in m/s (hover to see current wind gust speed)